Time;durP1;ratioP1;P1;durP2;ratioP2;P2;SDS_P1;SDS_P2;PMS_P1;PMS_P2;Temp;Humidity;BMP_temperature;BMP_pressure;BME280_temperature;BME280_humidity;BME280_pressure;Samples;Min_cycle;Max_cycle;Signal;HPM_P1;HPM_P2
2021/09/02 00:00:36;;;;;;;20.20;11.27;;;;;;;12.25;75.50;101632.22;8603245;34;20177;-71
2021/09/02 00:05:41;;;;;;;21.55;12.10;;;;;;;12.03;76.15;101633.66;8604034;34;20146;-71
2021/09/02 00:10:44;;;;;;;22.30;11.75;;;;;;;11.77;77.60;101632.75;8603611;34;20181;-71
2021/09/02 00:15:47;;;;;;;22.05;11.95;;;;;;;11.64;78.08;101629.13;8602779;34;20181;-71
2021/09/02 00:20:51;;;;;;;25.73;13.45;;;;;;;11.69;78.07;101625.16;8602779;34;20181;-71
2021/09/02 00:25:54;;;;;;;26.63;13.13;;;;;;;11.72;77.93;101626.78;8603142;34;20684;-71
2021/09/02 00:30:57;;;;;;;20.40;11.55;;;;;;;11.68;77.92;101636.00;8602896;34;20150;-71
2021/09/02 00:36:02;;;;;;;27.48;12.77;;;;;;;11.65;77.91;101625.47;8602554;34;20638;-71
2021/09/02 00:41:06;;;;;;;23.15;11.48;;;;;;;11.66;77.80;101630.75;8571554;34;1108483;-71
2021/09/02 00:46:13;;;;;;;23.73;12.23;;;;;;;11.69;77.13;101625.16;8604022;34;20284;-71
2021/09/02 00:51:19;;;;;;;24.48;12.23;;;;;;;11.76;76.58;101613.97;8603808;34;20192;-71
2021/09/02 00:56:25;;;;;;;21.33;11.15;;;;;;;11.73;76.44;101613.22;8603072;34;20204;-71
2021/09/02 01:01:28;;;;;;;22.60;11.30;;;;;;;11.83;76.49;101607.22;8604382;34;20226;-71
2021/09/02 01:06:33;;;;;;;20.65;11.50;;;;;;;11.80;76.16;101604.75;8604036;34;20188;-71
2021/09/02 01:11:37;;;;;;;20.42;11.07;;;;;;;11.71;75.98;101608.91;8604217;34;20188;-71
2021/09/02 01:16:39;;;;;;;22.00;12.00;;;;;;;11.59;76.09;101613.28;8603851;34;20190;-71
2021/09/02 01:21:44;;;;;;;18.88;10.95;;;;;;;11.59;75.91;101620.50;8603408;34;20188;-72
2021/09/02 01:26:48;;;;;;;24.92;10.77;;;;;;;11.47;76.49;101614.94;8603477;34;20433;-71
2021/09/02 01:31:54;;;;;;;20.25;11.43;;;;;;;11.54;76.45;101606.47;8603285;34;20944;-71
2021/09/02 01:36:58;;;;;;;24.00;11.48;;;;;;;11.29;77.72;101621.50;8578981;34;21429;-72
2021/09/02 01:42:02;;;;;;;20.98;11.85;;;;;;;11.22;77.88;101629.13;8602741;34;20185;-70
2021/09/02 01:47:23;;;;;;;21.08;12.32;;;;;;;11.08;78.25;101620.16;8602932;34;20225;-71
2021/09/02 01:52:26;;;;;;;25.42;12.35;;;;;;;11.05;78.29;101629.28;8610697;34;20137;-72
2021/09/02 01:57:31;;;;;;;23.08;12.15;;;;;;;11.08;78.14;101626.44;8602654;34;20456;-72
2021/09/02 02:02:34;;;;;;;20.30;11.63;;;;;;;11.11;77.57;101623.53;8602429;34;20200;-71
2021/09/02 02:07:39;;;;;;;17.75;9.98;;;;;;;11.12;77.07;101621.72;8602073;34;20177;-71
2021/09/02 02:12:45;;;;;;;19.63;11.77;;;;;;;11.13;77.26;101624.31;8601855;34;20650;-71
2021/09/02 02:17:48;;;;;;;16.20;10.43;;;;;;;11.05;77.65;101623.91;8601511;34;20185;-71
2021/09/02 02:22:51;;;;;;;19.92;10.95;;;;;;;11.09;77.38;101621.91;8601836;34;20257;-71
2021/09/02 02:27:55;;;;;;;16.85;10.30;;;;;;;11.08;76.84;101617.47;8601183;34;20193;-72
2021/09/02 02:32:58;;;;;;;17.52;9.55;;;;;;;11.03;76.66;101610.56;8601579;34;20524;-71
2021/09/02 02:38:01;;;;;;;19.40;10.50;;;;;;;10.99;75.92;101614.41;8601395;34;20185;-71
2021/09/02 02:43:06;;;;;;;20.45;11.10;;;;;;;10.92;75.80;101614.91;8601063;34;20185;-71
2021/09/02 02:48:09;;;;;;;18.65;11.18;;;;;;;10.82;76.00;101607.41;8601194;34;20283;-71
2021/09/02 02:53:12;;;;;;;18.77;10.30;;;;;;;10.80;76.23;101605.78;8601237;34;20294;-71
2021/09/02 02:58:16;;;;;;;19.05;10.80;;;;;;;10.77;75.88;101606.84;8600465;34;20188;-71
2021/09/02 03:03:19;;;;;;;20.67;10.82;;;;;;;10.68;75.89;101604.72;8600431;34;20670;-71
2021/09/02 03:08:22;;;;;;;21.45;11.13;;;;;;;10.77;75.84;101603.28;8600484;34;21495;-71
2021/09/02 03:13:27;;;;;;;20.58;11.07;;;;;;;10.77;75.71;101597.91;8600811;34;20169;-72
2021/09/02 03:18:30;;;;;;;17.20;10.30;;;;;;;10.86;75.82;101597.34;8600319;34;20193;-72
2021/09/02 03:23:33;;;;;;;25.23;11.90;;;;;;;11.01;76.07;101596.34;8600892;34;20731;-72
2021/09/02 03:28:38;;;;;;;18.58;10.98;;;;;;;11.24;76.17;101603.00;8600121;34;20134;-71
2021/09/02 03:33:41;;;;;;;27.33;12.40;;;;;;;11.40;76.07;101596.59;8600420;34;21659;-71
2021/09/02 03:38:44;;;;;;;20.13;11.35;;;;;;;11.56;76.05;101608.09;8599713;34;20231;-71
2021/09/02 03:43:49;;;;;;;23.38;12.65;;;;;;;11.81;76.05;101593.00;8599531;34;20257;-71
2021/09/02 03:48:52;;;;;;;25.23;12.48;;;;;;;11.92;75.83;101598.53;8599891;34;20242;-71
2021/09/02 03:53:55;;;;;;;24.05;12.63;;;;;;;12.01;75.93;101595.19;8599820;34;20634;-71
2021/09/02 03:58:59;;;;;;;23.58;12.50;;;;;;;11.90;75.92;101603.16;8599726;34;20201;-71
2021/09/02 04:04:03;;;;;;;22.83;13.65;;;;;;;11.77;76.99;101599.56;8599636;34;20225;-71
2021/09/02 04:09:06;;;;;;;29.52;14.00;;;;;;;11.75;77.50;101599.66;8600648;34;21640;-72
2021/09/02 04:14:10;;;;;;;28.25;14.05;;;;;;;11.73;78.07;101597.06;8599613;34;20557;-71
2021/09/02 04:19:13;;;;;;;27.17;13.75;;;;;;;11.82;78.08;101605.50;8599607;34;20629;-71
2021/09/02 04:24:16;;;;;;;29.17;14.63;;;;;;;11.93;78.10;101598.44;8599531;34;20326;-71
2021/09/02 04:29:20;;;;;;;25.60;13.55;;;;;;;12.02;78.05;101594.25;8600055;34;20521;-71
2021/09/02 04:34:23;;;;;;;26.75;13.50;;;;;;;11.91;77.96;101604.88;8579573;34;21176;-71
2021/09/02 04:39:26;;;;;;;28.08;14.43;;;;;;;12.07;78.24;101605.59;8603536;34;21646;-71
2021/09/02 04:44:31;;;;;;;25.50;13.32;;;;;;;12.04;77.44;101605.78;8602946;34;20161;-71
2021/09/02 04:49:34;;;;;;;22.02;12.27;;;;;;;12.03;78.08;101612.13;8603946;34;20189;-71
2021/09/02 04:54:37;;;;;;;23.30;12.48;;;;;;;11.97;77.87;101617.06;8603118;34;20284;-72
2021/09/02 04:59:41;;;;;;;23.92;12.18;;;;;;;11.97;78.52;101622.47;8602999;34;20242;-71
2021/09/02 05:04:45;;;;;;;22.25;12.85;;;;;;;12.20;78.12;101624.44;8602562;34;20704;-72
2021/09/02 05:09:52;;;;;;;25.08;13.02;;;;;;;12.40;77.71;101628.50;8603102;34;20331;-72
2021/09/02 05:14:57;;;;;;;29.00;13.15;;;;;;;12.54;77.13;101627.56;8602560;34;20207;-72
2021/09/02 05:20:00;;;;;;;26.70;13.40;;;;;;;12.61;76.73;101620.75;8602354;34;20254;-72
2021/09/02 05:25:03;;;;;;;26.42;13.88;;;;;;;12.65;76.35;101624.09;8601691;34;20230;-71
2021/09/02 05:30:12;;;;;;;27.75;13.88;;;;;;;12.70;76.14;101622.81;8602273;34;20189;-72
2021/09/02 05:35:20;;;;;;;30.83;15.45;;;;;;;12.75;75.36;101627.84;8601979;34;20181;-71
2021/09/02 05:40:23;;;;;;;26.80;13.20;;;;;;;12.81;75.59;101627.44;8602140;34;20268;-71
2021/09/02 05:45:27;;;;;;;25.98;13.27;;;;;;;12.88;75.51;101625.16;8600990;34;20726;-71
2021/09/02 05:50:30;;;;;;;28.67;14.95;;;;;;;13.01;75.52;101632.28;8602364;34;20678;-71
2021/09/02 05:55:33;;;;;;;22.40;11.98;;;;;;;13.11;74.78;101621.69;8601371;34;20171;-71
2021/09/02 06:00:38;;;;;;;25.05;12.93;;;;;;;13.21;74.77;101633.53;8601294;34;20820;-71
2021/09/02 06:05:41;;;;;;;25.42;14.07;;;;;;;13.20;74.32;101639.03;8577117;34;20444;-71
2021/09/02 06:10:44;;;;;;;21.48;12.35;;;;;;;13.34;74.30;101643.44;8605024;34;20438;-71
2021/09/02 06:15:48;;;;;;;24.67;12.30;;;;;;;13.49;74.49;101655.81;8601161;34;20468;-71
2021/09/02 06:20:52;;;;;;;18.52;9.95;;;;;;;13.61;73.83;101656.78;8601073;34;20641;-72
2021/09/02 06:25:55;;;;;;;13.10;7.43;;;;;;;13.78;72.88;101650.97;8600551;34;20189;-71
2021/09/02 06:30:59;;;;;;;20.67;11.57;;;;;;;14.03;72.39;101641.88;8600545;34;20547;-71
2021/09/02 06:36:03;;;;;;;16.40;9.65;;;;;;;14.04;72.05;101645.44;8599905;34;20149;-72
2021/09/02 06:41:06;;;;;;;19.92;11.82;;;;;;;14.32;71.89;101660.44;8600640;34;20562;-71
2021/09/02 06:46:10;;;;;;;16.90;9.70;;;;;;;14.64;71.26;101652.53;8600578;34;20457;-72
2021/09/02 06:51:14;;;;;;;23.15;13.05;;;;;;;14.82;69.83;101642.13;8600384;34;20268;-71
2021/09/02 06:56:17;;;;;;;19.98;11.98;;;;;;;15.09;69.26;101644.47;8599312;34;20185;-71
2021/09/02 07:01:21;;;;;;;21.83;12.15;;;;;;;15.24;69.28;101642.38;8600440;34;20263;-72
2021/09/02 07:06:24;;;;;;;20.17;10.88;;;;;;;15.42;68.72;101645.47;8599754;34;21977;-71
2021/09/02 07:11:27;;;;;;;15.45;9.88;;;;;;;15.64;68.55;101644.56;8600263;34;20212;-71
2021/09/02 07:16:32;;;;;;;17.80;9.70;;;;;;;16.05;68.18;101646.53;8599168;34;21579;-71
2021/09/02 07:21:35;;;;;;;29.45;13.98;;;;;;;16.13;65.79;101651.28;8599802;34;20239;-71
2021/09/02 07:26:39;;;;;;;30.35;14.90;;;;;;;15.77;67.57;101656.09;8599486;34;20219;-71
2021/09/02 07:31:43;;;;;;;21.95;12.00;;;;;;;15.83;67.54;101657.44;8599237;34;20271;-71
2021/09/02 07:36:46;;;;;;;27.80;14.32;;;;;;;16.18;67.69;101645.47;8599240;34;20264;-72
2021/09/02 07:41:50;;;;;;;26.13;13.32;;;;;;;16.38;67.24;101651.94;8599687;34;20189;-71
2021/09/02 07:46:54;;;;;;;26.92;14.40;;;;;;;16.83;66.36;101652.50;8598992;34;20654;-71
2021/09/02 07:51:57;;;;;;;25.60;12.63;;;;;;;17.13;64.48;101659.81;8599208;34;20251;-71
2021/09/02 07:57:00;;;;;;;27.52;12.98;;;;;;;17.01;63.42;101648.19;8598557;34;20704;-71
2021/09/02 08:02:04;;;;;;;24.35;12.75;;;;;;;16.74;65.03;101650.59;8599247;34;20181;-71
2021/09/02 08:07:08;;;;;;;23.88;12.88;;;;;;;17.22;64.62;101653.59;8601069;34;20188;-71
2021/09/02 08:12:11;;;;;;;23.23;12.73;;;;;;;17.38;61.71;101653.06;8604246;34;21492;-71
2021/09/02 08:17:15;;;;;;;23.08;12.27;;;;;;;17.30;61.36;101669.19;8603584;34;20203;-72
2021/09/02 08:22:18;;;;;;;25.80;12.90;;;;;;;17.24;61.87;101673.31;8604616;34;20943;-71
2021/09/02 08:27:21;;;;;;;27.65;12.57;;;;;;;17.59;61.85;101669.28;8603285;34;20193;-71
2021/09/02 08:32:26;;;;;;;27.27;13.32;;;;;;;17.64;61.19;101677.00;8604318;34;20208;-71
2021/09/02 08:37:29;;;;;;;33.10;15.68;;;;;;;17.72;60.88;101682.63;8603720;34;20181;-72
2021/09/02 08:42:32;;;;;;;31.52;14.98;;;;;;;17.98;60.39;101682.09;8603543;34;20197;-71
2021/09/02 08:47:37;;;;;;;25.40;13.82;;;;;;;17.80;60.14;101685.50;8603234;34;20193;-72
2021/09/02 08:52:40;;;;;;;27.10;14.57;;;;;;;17.96;60.20;101693.06;8603322;34;20255;-71
2021/09/02 08:57:44;;;;;;;30.20;14.60;;;;;;;17.84;60.52;101692.34;8603165;34;20197;-71
2021/09/02 09:02:49;;;;;;;23.83;13.68;;;;;;;18.24;58.92;101687.81;8604002;34;20211;-71
2021/09/02 09:07:52;;;;;;;25.65;13.15;;;;;;;18.33;59.53;101678.81;8603244;34;20441;-72
2021/09/02 09:12:58;;;;;;;24.92;12.55;;;;;;;18.55;59.20;101691.25;8603023;34;20918;-72
2021/09/02 09:18:18;;;;;;;24.05;12.77;;;;;;;19.06;57.86;101684.59;8602324;34;20153;-72
2021/09/02 09:23:21;;;;;;;20.17;11.80;;;;;;;19.87;55.23;101686.63;8602346;34;20144;-71
2021/09/02 09:28:33;;;;;;;21.73;11.98;;;;;;;19.59;55.83;101699.44;8601475;34;20219;-72
2021/09/02 09:33:52;;;;;;;25.95;13.18;;;;;;;19.81;55.63;101701.75;8602492;34;20254;-71
2021/09/02 09:39:06;;;;;;;22.70;12.35;;;;;;;19.68;55.80;101680.28;8602124;34;20753;-72
2021/09/02 09:44:17;;;;;;;21.70;12.90;;;;;;;19.84;55.85;101684.22;8603295;34;20427;-71
2021/09/02 09:49:21;;;;;;;23.83;12.50;;;;;;;20.25;54.26;101676.44;8603585;34;20189;-71
2021/09/02 09:54:26;;;;;;;22.77;11.88;;;;;;;20.47;52.92;101673.25;8602957;34;20196;-72
2021/09/02 09:59:30;;;;;;;19.98;12.43;;;;;;;20.50;53.78;101672.94;8603138;34;21594;-72
2021/09/02 10:04:35;;;;;;;23.90;13.80;;;;;;;20.39;53.04;101680.53;8602458;34;20239;-72
2021/09/02 10:09:38;;;;;;;26.25;12.50;;;;;;;20.49;53.20;101687.59;8603624;34;20606;-72
2021/09/02 10:14:42;;;;;;;21.10;12.23;;;;;;;20.44;53.10;101667.25;8602536;34;20212;-72
2021/09/02 10:19:47;;;;;;;25.05;12.68;;;;;;;20.21;54.13;101666.84;8602814;34;20266;-72
2021/09/02 10:24:50;;;;;;;25.95;13.35;;;;;;;20.66;52.67;101654.97;8602567;34;20178;-72
2021/09/02 10:29:54;;;;;;;20.10;11.68;;;;;;;20.66;52.78;101652.25;8602852;34;20184;-73
2021/09/02 10:35:34;;;;;;;20.60;12.63;;;;;;;20.49;52.99;101662.19;8602061;34;20154;-72
2021/09/02 10:40:47;;;;;;;15.70;10.48;;;;;;;20.55;53.29;101653.34;8596112;34;21174;-71
2021/09/02 10:45:54;;;;;;;20.27;11.68;;;;;;;19.33;55.50;101658.38;8600972;34;20189;-71
2021/09/02 10:50:59;;;;;;;22.13;12.32;;;;;;;19.60;55.83;101654.81;8600735;34;20299;-73
2021/09/02 10:56:02;;;;;;;22.33;13.18;;;;;;;20.58;53.43;101646.72;8600476;34;20204;-72
2021/09/02 11:01:26;;;;;;;21.75;11.45;;;;;;;21.22;51.88;101648.97;8600726;34;20197;-72
2021/09/02 11:06:50;;;;;;;21.13;11.85;;;;;;;21.39;51.88;101647.19;8600645;34;21277;-72
2021/09/02 11:11:53;;;;;;;20.20;12.10;;;;;;;21.82;49.77;101636.22;8599939;34;20901;-72
2021/09/02 11:16:56;;;;;;;18.35;10.73;;;;;;;20.81;52.37;101639.69;8600080;34;20181;-72
2021/09/02 11:22:08;;;;;;;18.52;10.82;;;;;;;20.75;53.63;101637.63;8599906;34;20697;-72
2021/09/02 11:27:15;;;;;;;20.67;11.88;;;;;;;23.09;47.96;101632.91;8598999;34;20197;-72
2021/09/02 11:32:18;;;;;;;18.33;11.13;;;;;;;23.33;46.17;101628.34;8599538;34;20202;-72
2021/09/02 11:37:37;;;;;;;17.98;11.05;;;;;;;21.56;50.21;101630.84;8599509;34;20752;-72
2021/09/02 11:42:40;;;;;;;17.80;12.02;;;;;;;21.47;50.96;101624.47;8604362;34;20438;-72
2021/09/02 11:47:43;;;;;;;17.75;11.55;;;;;;;21.79;50.76;101621.00;8604533;34;21679;-72
2021/09/02 11:52:54;;;;;;;17.30;10.57;;;;;;;24.47;46.79;101604.78;8603391;34;20224;-72
2021/09/02 11:58:05;;;;;;;20.20;11.85;;;;;;;25.00;43.26;101604.72;8603514;34;20185;-72
2021/09/02 12:03:09;;;;;;;21.77;11.68;;;;;;;24.85;43.49;101597.31;8604258;34;20133;-71
2021/09/02 12:08:14;;;;;;;19.95;11.45;;;;;;;24.39;45.07;101589.19;8604132;34;20925;-72
2021/09/02 12:13:21;;;;;;;17.92;11.85;;;;;;;26.13;42.53;101589.50;8603815;34;20444;-72
2021/09/02 12:18:30;;;;;;;18.75;11.32;;;;;;;25.88;41.66;101581.66;8603326;34;20279;-72
2021/09/02 12:23:43;;;;;;;15.20;9.93;;;;;;;26.71;41.30;101584.66;8603293;34;20241;-72
2021/09/02 12:28:50;;;;;;;17.05;10.13;;;;;;;27.18;40.07;101583.91;8603229;34;20740;-72
2021/09/02 12:34:08;;;;;;;20.83;11.38;;;;;;;27.19;39.40;101579.22;8603415;34;20181;-72
2021/09/02 12:39:23;;;;;;;14.10;9.88;;;;;;;27.60;39.47;101572.81;8578946;34;20153;-72
2021/09/02 12:44:31;;;;;;;14.57;8.93;;;;;;;26.13;43.18;101573.84;8602442;34;20185;-72
2021/09/02 12:49:42;;;;;;;16.58;10.50;;;;;;;24.40;44.21;101577.19;8603045;34;20676;-72
2021/09/02 12:55:08;;;;;;;15.00;9.57;;;;;;;23.05;47.82;101582.19;8602075;34;20506;-72
2021/09/02 13:00:14;;;;;;;17.92;9.10;;;;;;;23.16;48.05;101562.66;8603193;34;20308;-72
2021/09/02 13:05:20;;;;;;;15.20;9.50;;;;;;;25.17;44.49;101552.09;8603055;34;20253;-72
2021/09/02 13:10:27;;;;;;;17.90;9.32;;;;;;;26.64;40.04;101554.31;8603215;34;20232;-72
2021/09/02 13:15:31;;;;;;;16.08;9.35;;;;;;;24.50;44.23;101553.06;8602399;34;21207;-72
2021/09/02 13:20:34;;;;;;;17.35;9.02;;;;;;;23.33;46.51;101543.38;8603123;34;20598;-71
2021/09/02 13:25:38;;;;;;;13.48;7.97;;;;;;;25.62;43.73;101529.97;8578783;34;20360;-72
2021/09/02 13:30:41;;;;;;;17.17;8.98;;;;;;;28.87;36.44;101523.88;8602814;34;20316;-71
2021/09/02 13:35:44;;;;;;;15.48;9.23;;;;;;;28.28;37.03;101523.81;8602017;34;20260;-71
2021/09/02 13:40:49;;;;;;;13.10;9.05;;;;;;;27.56;38.93;101517.19;8602257;34;20181;-71
2021/09/02 13:45:52;;;;;;;13.75;8.77;;;;;;;27.92;38.55;101509.53;8601863;34;20231;-73
2021/09/02 13:50:55;;;;;;;14.55;9.18;;;;;;;27.59;38.34;101511.25;8602187;34;20495;-72
2021/09/02 13:56:00;;;;;;;12.10;8.93;;;;;;;26.86;39.38;101501.91;8601238;34;20243;-73
2021/09/02 14:01:03;;;;;;;11.02;8.05;;;;;;;27.80;38.45;101496.38;8601645;34;20235;-71
2021/09/02 14:06:06;;;;;;;11.27;7.88;;;;;;;28.85;36.44;101492.81;8601711;34;20509;-72
2021/09/02 14:11:10;;;;;;;9.52;7.55;;;;;;;28.87;36.63;101494.28;8602141;34;20460;-72
2021/09/02 14:16:13;;;;;;;10.63;7.15;;;;;;;29.29;36.19;101488.34;8600513;34;20242;-72
2021/09/02 14:21:17;;;;;;;10.32;6.88;;;;;;;29.50;35.14;101488.00;8601591;34;20212;-72
2021/09/02 14:26:21;;;;;;;10.90;6.43;;;;;;;29.02;34.62;101490.38;8576433;34;20494;-72
2021/09/02 14:31:24;;;;;;;8.77;6.40;;;;;;;26.80;39.00;101473.22;8600584;34;20669;-72
2021/09/02 14:36:27;;;;;;;9.52;5.85;;;;;;;25.46;41.87;101466.97;8599894;34;20199;-72
2021/09/02 14:41:32;;;;;;;9.30;5.88;;;;;;;24.54;44.05;101476.63;8599464;34;20517;-72
2021/09/02 14:46:35;;;;;;;8.63;5.43;;;;;;;24.65;44.33;101467.91;8600236;34;20250;-72
2021/09/02 14:51:47;;;;;;;9.07;6.43;;;;;;;26.43;40.07;101458.84;8601285;34;20547;-72
2021/09/02 14:56:52;;;;;;;10.43;6.95;;;;;;;26.64;38.21;101466.16;8599915;34;20188;-72
2021/09/02 15:01:55;;;;;;;12.05;7.55;;;;;;;26.89;38.28;101454.63;8600034;34;20186;-72
2021/09/02 15:06:58;;;;;;;9.23;6.30;;;;;;;27.03;37.20;101455.50;8599656;34;20443;-71
2021/09/02 15:12:03;;;;;;;9.07;6.53;;;;;;;27.03;37.46;101456.34;8599671;34;21010;-72
2021/09/02 15:17:06;;;;;;;6.60;5.18;;;;;;;27.10;35.44;101454.47;8597964;34;21116;-72
2021/09/02 15:22:09;;;;;;;9.70;5.50;;;;;;;26.62;36.42;101435.19;8596071;34;20510;-72
2021/09/02 15:27:15;;;;;;;8.05;4.78;;;;;;;26.27;35.58;101432.50;8598694;34;20181;-72
2021/09/02 15:32:18;;;;;;;8.77;5.80;;;;;;;26.09;37.42;101434.91;8599764;34;20192;-70
2021/09/02 15:37:21;;;;;;;11.05;6.20;;;;;;;25.55;39.16;101422.59;8599344;34;22008;-72
2021/09/02 15:42:25;;;;;;;6.28;4.97;;;;;;;25.77;39.56;101428.94;8599503;34;21235;-71
2021/09/02 15:47:28;;;;;;;7.05;5.82;;;;;;;26.05;38.91;101425.31;8598305;34;20141;-71
2021/09/02 15:52:32;;;;;;;6.10;4.88;;;;;;;26.81;37.10;101418.94;8599609;34;20284;-71
2021/09/02 15:57:36;;;;;;;6.85;5.05;;;;;;;27.08;36.39;101414.38;8598689;34;20185;-72
2021/09/02 16:02:39;;;;;;;10.77;5.63;;;;;;;27.70;35.60;101402.13;8600728;34;20803;-72
2021/09/02 16:07:44;;;;;;;11.05;6.15;;;;;;;27.66;36.70;101398.09;8600899;34;20130;-72
2021/09/02 16:12:49;;;;;;;10.43;6.05;;;;;;;26.90;37.14;101384.63;8600057;34;20537;-72
2021/09/02 16:17:51;;;;;;;9.02;6.35;;;;;;;26.94;38.48;101383.19;8599337;34;20758;-72
2021/09/02 16:22:55;;;;;;;9.82;7.15;;;;;;;25.92;39.10;101361.91;8599138;34;20154;-72
2021/09/02 16:28:00;;;;;;;8.13;5.85;;;;;;;26.00;39.76;101359.00;8600546;34;20542;-72
2021/09/02 16:33:03;;;;;;;7.18;5.60;;;;;;;25.98;39.55;101359.22;8603426;34;20947;-72
2021/09/02 16:38:08;;;;;;;8.23;6.07;;;;;;;25.22;40.00;101349.97;8602364;34;20523;-72
2021/09/02 16:43:13;;;;;;;10.52;6.50;;;;;;;24.94;40.88;101342.50;8603486;34;20706;-73
2021/09/02 16:48:17;;;;;;;8.88;7.00;;;;;;;24.49;41.84;101341.78;8603298;34;20247;-72
2021/09/02 16:53:20;;;;;;;10.23;6.53;;;;;;;24.14;42.81;101336.06;8609575;34;20207;-72
2021/09/02 16:58:27;;;;;;;8.55;5.63;;;;;;;23.93;43.80;101338.72;8602517;34;20195;-72
2021/09/02 17:03:31;;;;;;;10.10;6.03;;;;;;;23.62;45.65;101336.97;8602534;34;20181;-72
2021/09/02 17:08:34;;;;;;;10.38;6.43;;;;;;;23.16;46.46;101335.19;8603296;34;20187;-73
2021/09/02 17:13:38;;;;;;;13.05;6.78;;;;;;;22.90;46.75;101323.72;8603890;34;20220;-73
2021/09/02 17:18:41;;;;;;;9.07;5.72;;;;;;;22.59;47.67;101321.88;8603289;34;20185;-72
2021/09/02 17:23:44;;;;;;;7.65;6.25;;;;;;;22.13;48.63;101326.38;8603115;34;20146;-73
2021/09/02 17:28:49;;;;;;;10.75;5.90;;;;;;;21.64;50.57;101322.78;8602026;34;20154;-72
2021/09/02 17:33:52;;;;;;;9.63;6.43;;;;;;;21.19;51.73;101317.88;8602079;34;20189;-72
2021/09/02 17:38:55;;;;;;;8.82;6.22;;;;;;;20.77;52.56;101316.97;8601408;34;20319;-73
2021/09/02 17:43:59;;;;;;;9.30;6.63;;;;;;;20.42;53.66;101318.09;8601584;34;20201;-73
2021/09/02 17:49:02;;;;;;;8.63;6.30;;;;;;;19.94;55.05;101319.63;8602086;34;20292;-73
2021/09/02 17:54:05;;;;;;;9.60;7.03;;;;;;;19.48;56.52;101318.97;8601728;34;21079;-73
2021/09/02 17:59:10;;;;;;;9.38;6.35;;;;;;;19.17;57.53;101324.91;8601560;34;21936;-73
2021/09/02 18:04:13;;;;;;;12.00;6.85;;;;;;;18.99;58.04;101321.34;8577596;34;20185;-73
2021/09/02 18:09:16;;;;;;;10.75;7.03;;;;;;;18.81;58.48;101315.88;8601554;34;20353;-73
2021/09/02 18:14:21;;;;;;;9.63;6.40;;;;;;;18.65;59.37;101319.28;8602034;34;20662;-72
2021/09/02 18:19:24;;;;;;;12.65;7.28;;;;;;;18.41;59.93;101317.16;8601407;34;20587;-72
2021/09/02 18:24:29;;;;;;;9.60;6.85;;;;;;;18.16;60.65;101318.75;8602406;34;20479;-72
2021/09/02 18:29:34;;;;;;;11.05;7.45;;;;;;;18.13;60.61;101319.06;8601599;34;20193;-72
2021/09/02 18:34:37;;;;;;;10.77;7.38;;;;;;;18.07;60.91;101320.50;8600099;34;20220;-72
2021/09/02 18:39:40;;;;;;;9.40;7.05;;;;;;;17.98;61.33;101317.84;8600402;34;20696;-72
2021/09/02 18:44:51;;;;;;;9.10;6.70;;;;;;;17.91;61.68;101321.13;8599502;34;20184;-71
2021/09/02 18:49:54;;;;;;;9.00;6.43;;;;;;;17.72;62.29;101318.50;8596080;34;20329;-72
2021/09/02 18:54:59;;;;;;;11.48;6.47;;;;;;;17.60;62.79;101317.78;8600082;34;20154;-71
2021/09/02 19:00:05;;;;;;;10.70;6.65;;;;;;;17.46;62.93;101326.41;8600374;34;20599;-71
2021/09/02 19:05:11;;;;;;;8.52;6.53;;;;;;;17.37;63.05;101324.59;8599449;34;20189;-71
2021/09/02 19:10:16;;;;;;;11.02;7.53;;;;;;;17.25;63.33;101327.47;8599777;34;20824;-71
2021/09/02 19:15:22;;;;;;;10.43;6.90;;;;;;;16.98;64.51;101321.91;8599451;34;20602;-71
2021/09/02 19:20:26;;;;;;;11.68;7.20;;;;;;;16.89;64.50;101330.88;8599269;34;20152;-71
2021/09/02 19:25:31;;;;;;;15.43;7.25;;;;;;;16.79;64.62;101328.19;8598761;34;20229;-72
2021/09/02 19:30:41;;;;;;;9.82;6.68;;;;;;;16.81;64.24;101328.88;8599485;34;22044;-72
2021/09/02 19:35:47;;;;;;;11.23;6.50;;;;;;;16.69;64.78;101316.44;8598550;34;20256;-71
2021/09/02 19:40:52;;;;;;;9.60;6.72;;;;;;;16.53;65.05;101315.13;8598871;34;20264;-71
2021/09/02 19:45:57;;;;;;;12.85;7.05;;;;;;;16.45;65.52;101314.97;8597597;34;20207;-71
2021/09/02 19:51:01;;;;;;;11.32;7.03;;;;;;;16.38;65.80;101315.72;8598344;34;20479;-71
2021/09/02 19:56:30;;;;;;;13.93;7.80;;;;;;;16.30;66.24;101305.56;8573312;34;20319;-71
2021/09/02 20:01:35;;;;;;;12.32;7.93;;;;;;;16.19;66.17;101301.06;8599813;33;20134;-71
2021/09/02 20:06:52;;;;;;;14.15;7.82;;;;;;;16.16;66.65;101301.34;8604592;34;21051;-70
2021/09/02 20:11:58;;;;;;;11.07;7.50;;;;;;;16.05;66.84;101305.03;8604186;34;20243;-70
2021/09/02 20:17:05;;;;;;;12.00;7.78;;;;;;;15.97;66.89;101304.00;8603191;34;20296;-70
2021/09/02 20:22:09;;;;;;;11.50;7.68;;;;;;;15.85;67.41;101316.78;8603475;34;20193;-70
2021/09/02 20:27:13;;;;;;;11.52;8.15;;;;;;;15.65;68.13;101310.41;8603304;34;20185;-70
2021/09/02 20:32:17;;;;;;;14.57;8.85;;;;;;;15.63;68.46;101310.56;8603110;34;20189;-70
2021/09/02 20:37:29;;;;;;;12.32;8.27;;;;;;;15.55;68.44;101298.69;8602938;34;20134;-71
2021/09/02 20:42:35;;;;;;;13.45;8.07;;;;;;;15.64;68.59;101292.47;8603958;34;20605;-71
2021/09/02 20:47:43;;;;;;;14.63;8.65;;;;;;;15.65;68.10;101289.59;8602455;34;20451;-71
2021/09/02 20:52:47;;;;;;;10.70;7.63;;;;;;;15.55;68.07;101290.56;8602413;34;20185;-71
2021/09/02 20:57:51;;;;;;;12.65;8.15;;;;;;;15.36;69.21;101297.59;8601973;34;20169;-71
2021/09/02 21:02:58;;;;;;;12.82;8.95;;;;;;;15.24;69.60;101294.06;8602530;34;20666;-71
2021/09/02 21:08:01;;;;;;;14.88;8.95;;;;;;;15.12;70.24;101300.53;8601663;34;20181;-71
2021/09/02 21:13:05;;;;;;;16.65;9.25;;;;;;;15.14;70.38;101303.09;8577652;34;20255;-71
2021/09/02 21:18:10;;;;;;;12.30;8.57;;;;;;;15.30;69.86;101302.63;8602176;34;20154;-71
2021/09/02 21:23:17;;;;;;;14.32;8.68;;;;;;;15.08;69.60;101304.47;8601594;34;20251;-71
2021/09/02 21:28:39;;;;;;;12.48;8.80;;;;;;;15.09;69.74;101303.50;8601532;34;20503;-71
2021/09/02 21:34:00;;;;;;;15.65;9.85;;;;;;;14.86;70.50;101310.84;8601015;34;20267;-71
2021/09/02 21:39:04;;;;;;;13.50;8.63;;;;;;;14.73;71.82;101307.50;8601118;34;20197;-71
2021/09/02 21:44:16;;;;;;;15.52;10.07;;;;;;;14.79;71.45;101307.84;8600131;34;20453;-72
2021/09/02 21:49:23;;;;;;;14.40;9.35;;;;;;;14.70;71.46;101311.31;8591306;34;20177;-71
2021/09/02 21:54:29;;;;;;;14.05;10.05;;;;;;;14.58;71.73;101305.06;8600589;34;20483;-72
2021/09/02 21:59:34;;;;;;;15.15;8.73;;;;;;;14.38;72.49;101312.16;8600766;34;20959;-72
2021/09/02 22:04:40;;;;;;;14.30;9.30;;;;;;;14.40;72.60;101305.75;8600569;34;20235;-72
2021/09/02 22:09:43;;;;;;;13.68;9.63;;;;;;;14.36;72.68;101305.97;8601088;34;20201;-71
2021/09/02 22:14:55;;;;;;;15.70;10.50;;;;;;;14.33;72.71;101303.53;8600190;34;20201;-71
2021/09/02 22:20:05;;;;;;;13.93;9.88;;;;;;;14.19;72.83;101305.66;8600583;34;20197;-71
2021/09/02 22:25:11;;;;;;;17.08;9.93;;;;;;;14.22;73.02;101311.66;8599674;34;20208;-71
2021/09/02 22:30:14;;;;;;;15.48;10.30;;;;;;;14.16;73.07;101312.16;8599654;34;21009;-72
2021/09/02 22:35:19;;;;;;;17.75;9.73;;;;;;;14.20;72.78;101301.97;8599566;34;20165;-72
2021/09/02 22:40:24;;;;;;;12.15;9.82;;;;;;;14.22;72.57;101300.00;8600023;34;20185;-71
2021/09/02 22:45:28;;;;;;;15.45;10.02;;;;;;;14.13;72.66;101293.50;8599707;34;20251;-71
2021/09/02 22:50:33;;;;;;;20.50;11.82;;;;;;;13.99;73.48;101291.03;8599637;34;20243;-71
2021/09/02 22:55:37;;;;;;;16.38;10.40;;;;;;;13.87;73.75;101303.72;8599662;34;20267;-71
2021/09/02 23:00:41;;;;;;;19.98;11.07;;;;;;;13.87;74.01;101295.59;8599967;34;20643;-72
2021/09/02 23:05:53;;;;;;;18.40;11.48;;;;;;;13.86;74.89;101297.47;8601171;34;20142;-71
2021/09/02 23:11:03;;;;;;;21.27;11.40;;;;;;;13.88;74.36;101282.00;8599562;34;20478;-71
2021/09/02 23:16:09;;;;;;;21.80;12.00;;;;;;;13.78;74.40;101283.72;8598699;34;20244;-71